Time;durP1;ratioP1;P1;durP2;ratioP2;P2;SDS_P1;SDS_P2;PMS_P1;PMS_P2;Temp;Humidity;BMP_temperature;BMP_pressure;BME280_temperature;BME280_humidity;BME280_pressure;Samples;Min_cycle;Max_cycle;Signal;HPM_P1;HPM_P2
2021/03/25 00:01:00;;;;;;;6.70;5.67;;;19.50;52.70;;;;;;5062018;28;20244;-86
2021/03/25 00:03:27;;;;;;;6.57;5.53;;;19.50;52.70;;;;;;5062399;28;20210;-86
2021/03/25 00:05:54;;;;;;;6.53;5.30;;;19.50;52.80;;;;;;5056807;28;20301;-85
2021/03/25 00:08:24;;;;;;;5.70;5.10;;;19.50;52.70;;;;;;5063412;28;20206;-86
2021/03/25 00:10:51;;;;;;;8.60;5.97;;;19.50;52.80;;;;;;5059987;28;20194;-86
2021/03/25 00:13:18;;;;;;;7.80;5.67;;;19.50;52.80;;;;;;5058407;28;20296;-84
2021/03/25 00:15:45;;;;;;;6.00;5.40;;;19.50;52.80;;;;;;5063973;28;20780;-84
2021/03/25 00:18:13;;;;;;;7.33;5.30;;;19.50;52.80;;;;;;5066647;28;20556;-84
2021/03/25 00:20:39;;;;;;;9.07;5.60;;;19.50;52.80;;;;;;5063675;28;20285;-84
2021/03/25 00:23:06;;;;;;;7.27;5.93;;;19.50;52.90;;;;;;5069074;28;20217;-84
2021/03/25 00:25:34;;;;;;;6.60;5.83;;;19.50;52.80;;;;;;5063566;28;20220;-84
2021/03/25 00:28:01;;;;;;;7.60;6.67;;;19.50;52.80;;;;;;5063237;28;20194;-84
2021/03/25 00:30:30;;;;;;;5.70;5.20;;;19.40;52.80;;;;;;5062333;28;20209;-86
2021/03/25 00:32:58;;;;;;;6.97;5.67;;;19.50;52.80;;;;;;5059710;28;20562;-86
2021/03/25 00:35:26;;;;;;;7.37;5.80;;;19.40;52.80;;;;;;5048217;28;20202;-86
2021/03/25 00:37:52;;;;;;;8.17;6.43;;;19.40;52.80;;;;;;5064720;28;20189;-87
2021/03/25 00:40:28;;;;;;;6.20;5.53;;;19.40;52.90;;;;;;5063013;28;20266;-85
2021/03/25 00:42:55;;;;;;;5.87;5.27;;;19.40;52.90;;;;;;5061389;28;20220;-85
2021/03/25 00:45:28;;;;;;;6.23;5.63;;;19.40;52.90;;;;;;5060907;28;20201;-85
2021/03/25 00:47:55;;;;;;;6.67;5.60;;;19.40;52.90;;;;;;5058773;28;20212;-85
2021/03/25 00:50:39;;;;;;;8.50;5.80;;;19.40;52.90;;;;;;5067036;28;20197;-85
2021/03/25 00:53:08;;;;;;;6.93;6.23;;;19.40;52.90;;;;;;5057899;28;20186;-85
2021/03/25 00:55:34;;;;;;;6.93;6.00;;;19.30;52.90;;;;;;5064849;28;20186;-85
2021/03/25 00:58:01;;;;;;;6.80;6.10;;;19.30;52.90;;;;;;5062087;28;20224;-85
2021/03/25 01:00:34;;;;;;;7.60;6.80;;;19.40;52.90;;;;;;5066920;28;20225;-85
2021/03/25 01:03:00;;;;;;;6.87;5.60;;;19.30;52.90;;;;;;5067215;28;20354;-85
2021/03/25 01:05:28;;;;;;;6.90;6.20;;;19.30;52.90;;;;;;5062824;28;20216;-85
2021/03/25 01:07:55;;;;;;;7.03;6.33;;;19.30;52.90;;;;;;5063850;28;20193;-86
2021/03/25 01:10:46;;;;;;;7.43;6.63;;;19.30;52.90;;;;;;5064726;28;20200;-86
2021/03/25 01:13:24;;;;;;;6.87;6.13;;;19.30;52.90;;;;;;5060874;28;20198;-85
2021/03/25 01:15:50;;;;;;;8.30;6.73;;;19.30;52.90;;;;;;5066394;28;20209;-85
2021/03/25 01:18:17;;;;;;;8.00;6.33;;;19.30;52.90;;;;;;5066169;28;20191;-84
2021/03/25 01:20:44;;;;;;;7.10;6.40;;;19.30;52.90;;;;;;5069742;28;20595;-84
2021/03/25 01:23:11;;;;;;;8.43;6.20;;;19.30;52.90;;;;;;5067459;28;21000;-85
2021/03/25 01:25:39;;;;;;;7.90;6.10;;;19.20;52.90;;;;;;5066376;28;20268;-84
2021/03/25 01:28:08;;;;;;;7.70;6.30;;;19.30;52.90;;;;;;5065241;28;20200;-85
2021/03/25 01:30:36;;;;;;;6.93;5.97;;;19.20;52.90;;;;;;5067589;28;20174;-85
2021/03/25 01:33:05;;;;;;;7.27;6.37;;;19.20;52.90;;;;;;5064953;28;20268;-85
2021/03/25 01:35:33;;;;;;;7.00;6.20;;;19.20;52.90;;;;;;5070902;28;20252;-85
2021/03/25 01:38:00;;;;;;;6.97;6.27;;;19.20;52.90;;;;;;5070291;28;20194;-86
2021/03/25 01:40:38;;;;;;;6.73;5.93;;;19.20;52.90;;;;;;5063391;28;20205;-85
2021/03/25 01:43:12;;;;;;;6.80;5.97;;;19.20;52.90;;;;;;5066288;28;20232;-84
2021/03/25 01:45:46;;;;;;;9.23;6.27;;;19.20;52.90;;;;;;5063120;28;20196;-83
2021/03/25 01:48:12;;;;;;;7.60;6.63;;;19.20;52.90;;;;;;5062861;28;20444;-84
2021/03/25 01:50:39;;;;;;;7.03;6.27;;;19.20;52.90;;;;;;5066899;28;20286;-84
2021/03/25 01:53:22;;;;;;;8.07;6.53;;;19.20;52.90;;;;;;5066203;28;20197;-84
2021/03/25 01:56:01;;;;;;;6.10;5.50;;;19.20;53.00;;;;;;5070351;28;20204;-84
2021/03/25 01:58:50;;;;;;;6.27;5.67;;;19.10;52.80;;;;;;5063017;28;20224;-84
2021/03/25 02:01:45;;;;;;;7.17;5.90;;;19.10;52.80;;;;;;5059312;28;20209;-84
2021/03/25 02:04:25;;;;;;;7.77;6.27;;;19.20;52.90;;;;;;5065578;28;20226;-84
2021/03/25 02:06:54;;;;;;;6.80;6.20;;;19.10;52.90;;;;;;5071120;28;20186;-84
2021/03/25 02:09:26;;;;;;;7.00;6.30;;;19.10;52.90;;;;;;5066270;28;20416;-84
2021/03/25 02:12:20;;;;;;;8.40;7.20;;;19.10;52.90;;;;;;5067331;28;20186;-83
2021/03/25 02:14:54;;;;;;;6.87;6.13;;;19.10;52.90;;;;;;5062460;28;20201;-84
2021/03/25 02:17:27;;;;;;;8.10;7.10;;;19.10;52.80;;;;;;5059779;28;20177;-84
2021/03/25 02:20:38;;;;;;;6.97;6.27;;;19.10;52.90;;;;;;5067509;28;20195;-84
2021/03/25 02:23:32;;;;;;;7.67;6.87;;;19.10;52.90;;;;;;5070412;28;20213;-85
2021/03/25 02:26:21;;;;;;;7.40;6.60;;;19.10;52.90;;;;;;5064786;28;20641;-84
2021/03/25 02:29:02;;;;;;;7.17;6.23;;;19.10;52.90;;;;;;5064415;28;20206;-86
2021/03/25 02:31:35;;;;;;;7.70;6.80;;;19.10;52.90;;;;;;5065463;28;20205;-85
2021/03/25 02:34:07;;;;;;;8.70;6.63;;;19.00;52.90;;;;;;5065867;28;20194;-85
2021/03/25 02:36:39;;;;;;;8.07;6.80;;;19.10;52.90;;;;;;5062926;28;20194;-85
2021/03/25 02:39:11;;;;;;;7.63;6.43;;;19.00;52.90;;;;;;5061117;28;20201;-86
2021/03/25 02:41:42;;;;;;;7.27;6.57;;;19.00;52.90;;;;;;5059666;28;20777;-86
2021/03/25 02:44:18;;;;;;;8.10;7.30;;;19.10;52.90;;;;;;5063292;28;20696;-85
2021/03/25 02:46:56;;;;;;;7.70;6.87;;;19.00;52.90;;;;;;5066092;28;20205;-85
2021/03/25 02:49:28;;;;;;;8.27;7.10;;;19.10;52.90;;;;;;5065368;28;20197;-85
2021/03/25 02:51:57;;;;;;;8.40;7.47;;;19.00;52.90;;;;;;5064326;28;20202;-85
2021/03/25 02:54:24;;;;;;;7.23;6.50;;;19.00;52.90;;;;;;5063922;28;20504;-86
2021/03/25 02:56:56;;;;;;;7.23;6.53;;;19.00;52.90;;;;;;5064066;28;20685;-86
2021/03/25 02:59:31;;;;;;;8.83;7.20;;;19.00;52.90;;;;;;5062164;28;20250;-86
2021/03/25 03:02:14;;;;;;;8.17;7.37;;;19.00;52.90;;;;;;5069306;28;20193;-85
2021/03/25 03:04:44;;;;;;;8.73;7.67;;;19.00;52.90;;;;;;5063658;28;20205;-84
2021/03/25 03:07:19;;;;;;;9.33;7.00;;;19.00;53.00;;;;;;5062812;28;20189;-84
2021/03/25 03:09:50;;;;;;;8.13;7.30;;;19.00;53.00;;;;;;5064951;28;20205;-85
2021/03/25 03:12:39;;;;;;;7.97;7.13;;;19.00;52.90;;;;;;5066907;28;20201;-84
2021/03/25 03:15:12;;;;;;;9.10;6.70;;;19.00;52.90;;;;;;5057863;28;20198;-85
2021/03/25 03:17:50;;;;;;;9.13;7.17;;;19.00;52.90;;;;;;5066001;28;20902;-84
2021/03/25 03:20:31;;;;;;;7.57;6.83;;;19.00;52.90;;;;;;5063018;28;20612;-84
2021/03/25 03:22:58;;;;;;;8.37;6.40;;;19.00;52.90;;;;;;5067143;28;20206;-84
2021/03/25 03:25:26;;;;;;;9.47;7.73;;;19.00;52.90;;;;;;5068267;28;20200;-84
2021/03/25 03:27:57;;;;;;;7.27;6.47;;;19.00;52.90;;;;;;5060546;28;20193;-84
2021/03/25 03:30:32;;;;;;;8.40;7.13;;;19.00;53.00;;;;;;5064634;28;20575;-84
2021/03/25 03:33:08;;;;;;;7.13;6.43;;;18.90;52.90;;;;;;5065353;28;20611;-84
2021/03/25 03:35:42;;;;;;;7.27;6.57;;;18.90;52.90;;;;;;5069130;28;20867;-83
2021/03/25 03:38:16;;;;;;;8.40;7.00;;;18.90;52.90;;;;;;5058036;28;20213;-84
2021/03/25 03:40:47;;;;;;;9.27;6.83;;;18.90;52.90;;;;;;5061893;28;20190;-84
2021/03/25 03:43:15;;;;;;;8.03;6.97;;;18.90;52.90;;;;;;5062734;28;20212;-84
2021/03/25 03:45:47;;;;;;;7.83;7.03;;;18.90;52.90;;;;;;5061197;28;20698;-85
2021/03/25 03:48:28;;;;;;;8.43;7.00;;;18.90;52.90;;;;;;5068273;28;20509;-85
2021/03/25 03:50:58;;;;;;;8.40;7.37;;;19.00;52.90;;;;;;5062528;28;20272;-84
2021/03/25 03:53:27;;;;;;;8.43;7.10;;;18.90;52.90;;;;;;5064365;28;20209;-84
2021/03/25 03:56:15;;;;;;;7.73;7.03;;;18.90;52.90;;;;;;5060678;28;20196;-80
2021/03/25 03:58:50;;;;;;;8.17;7.37;;;18.90;53.00;;;;;;5054536;28;20732;-85
2021/03/25 04:01:23;;;;;;;7.87;7.07;;;18.90;52.90;;;;;;5060801;28;20696;-85
2021/03/25 04:03:54;;;;;;;7.40;6.53;;;18.90;52.90;;;;;;5063235;28;20217;-85
2021/03/25 04:06:30;;;;;;;7.80;6.70;;;18.90;52.90;;;;;;5057915;28;20849;-85
2021/03/25 04:09:15;;;;;;;7.80;6.20;;;18.90;52.90;;;;;;5066403;28;20196;-84
2021/03/25 04:12:15;;;;;;;8.27;7.33;;;18.90;52.90;;;;;;5058117;28;20229;-84
2021/03/25 04:14:48;;;;;;;7.50;6.70;;;18.90;52.90;;;;;;5064893;28;20193;-84
2021/03/25 04:17:21;;;;;;;8.00;7.20;;;18.80;52.90;;;;;;5064032;28;20201;-84
2021/03/25 04:19:50;;;;;;;8.00;7.20;;;18.90;52.90;;;;;;5069163;28;20505;-84
2021/03/25 04:22:27;;;;;;;9.23;6.80;;;18.90;52.90;;;;;;5062902;28;20174;-85
2021/03/25 04:25:16;;;;;;;7.40;6.57;;;18.90;52.90;;;;;;5067690;28;20197;-84
2021/03/25 04:27:46;;;;;;;7.77;6.97;;;18.80;52.80;;;;;;5060707;28;20193;-84
2021/03/25 04:30:27;;;;;;;8.57;7.47;;;18.90;52.90;;;;;;5060864;28;20729;-84
2021/03/25 04:32:53;;;;;;;6.93;6.30;;;18.90;52.80;;;;;;5065118;28;20190;-84
2021/03/25 04:35:21;;;;;;;6.57;5.97;;;18.80;52.80;;;;;;5066263;28;20193;-85
2021/03/25 04:37:49;;;;;;;7.80;6.63;;;18.90;52.90;;;;;;5071326;28;20190;-84
2021/03/25 04:40:28;;;;;;;8.87;5.93;;;18.90;52.80;;;;;;5063199;28;20200;-84
2021/03/25 04:42:56;;;;;;;7.83;6.70;;;18.80;52.80;;;;;;5071018;28;20335;-84
2021/03/25 04:45:43;;;;;;;8.37;6.20;;;18.80;52.70;;;;;;5067411;28;20190;-84
2021/03/25 04:48:14;;;;;;;8.27;6.30;;;18.90;52.80;;;;;;5065503;28;20197;-84
2021/03/25 04:50:48;;;;;;;7.43;6.60;;;18.80;52.80;;;;;;5063780;28;20193;-83
2021/03/25 04:53:25;;;;;;;8.17;6.20;;;18.80;52.80;;;;;;5068993;28;20213;-83
2021/03/25 04:55:51;;;;;;;8.37;7.10;;;18.80;52.80;;;;;;5062170;28;20185;-85
2021/03/25 04:58:35;;;;;;;7.97;6.47;;;18.80;52.80;;;;;;5070380;28;20228;-84
2021/03/25 05:01:06;;;;;;;7.53;6.63;;;18.80;52.80;;;;;;5066903;28;20217;-84
2021/03/25 05:03:41;;;;;;;7.93;6.83;;;18.80;52.80;;;;;;5060134;28;20221;-85
2021/03/25 05:06:20;;;;;;;7.70;6.53;;;18.80;52.70;;;;;;5066249;28;20560;-85
2021/03/25 05:08:48;;;;;;;7.27;6.10;;;18.80;52.80;;;;;;5069312;28;20255;-84
2021/03/25 05:11:21;;;;;;;7.93;6.70;;;18.80;53.40;;;;;;5062835;28;20197;-85
2021/03/25 05:14:06;;;;;;;8.77;7.10;;;18.80;52.80;;;;;;5062464;28;20217;-84
2021/03/25 05:16:52;;;;;;;9.20;6.87;;;18.80;52.80;;;;;;5063319;28;20224;-85
2021/03/25 05:19:37;;;;;;;8.03;6.37;;;18.80;52.80;;;;;;5084251;28;20459;-85
2021/03/25 05:22:21;;;;;;;6.80;6.10;;;18.80;52.80;;;;;;5082674;28;20177;-85
2021/03/25 05:25:11;;;;;;;7.57;6.07;;;18.80;52.80;;;;;;5064550;28;20308;-85
2021/03/25 05:27:37;;;;;;;7.23;6.13;;;18.80;52.80;;;;;;5065900;28;20181;-85
2021/03/25 05:30:17;;;;;;;7.00;6.30;;;18.80;52.80;;;;;;5066926;28;20289;-83
2021/03/25 05:32:46;;;;;;;7.17;6.27;;;18.80;52.80;;;;;;5066686;28;20198;-83
2021/03/25 05:35:17;;;;;;;7.33;5.90;;;18.70;52.70;;;;;;5064692;28;20182;-84
2021/03/25 05:37:46;;;;;;;8.70;6.00;;;18.70;52.70;;;;;;5066194;28;20609;-84
2021/03/25 05:40:32;;;;;;;8.30;6.50;;;18.80;52.80;;;;;;5069007;28;20209;-84
2021/03/25 05:43:20;;;;;;;7.57;6.53;;;18.80;52.80;;;;;;5063745;28;20209;-84
2021/03/25 05:45:52;;;;;;;7.50;6.70;;;18.80;52.80;;;;;;5064825;28;20689;-85
2021/03/25 05:48:50;;;;;;;6.83;6.10;;;18.80;52.80;;;;;;5059282;28;20178;-84
2021/03/25 05:51:38;;;;;;;8.53;6.80;;;18.70;52.70;;;;;;5061972;28;20202;-85
2021/03/25 05:54:13;;;;;;;7.73;6.50;;;18.70;52.80;;;;;;5068464;28;20906;-85
2021/03/25 05:57:02;;;;;;;7.53;6.43;;;18.70;52.70;;;;;;5064698;28;22001;-81
2021/03/25 05:59:40;;;;;;;8.03;6.60;;;18.70;52.70;;;;;;5064051;28;20236;-85
2021/03/25 06:02:47;;;;;;;10.30;6.27;;;18.80;53.00;;;;;;5045346;28;20200;-90
2021/03/25 06:05:14;;;;;;;9.63;6.67;;;18.70;53.30;;;;;;5059621;28;20249;-85
2021/03/25 06:08:28;;;;;;;7.93;6.93;;;18.70;53.40;;;;;;5062972;28;20228;-82
2021/03/25 06:11:15;;;;;;;9.47;6.70;;;18.70;53.40;;;;;;5015477;28;20898;-89
2021/03/25 06:14:06;;;;;;;7.70;6.13;;;18.70;53.30;;;;;;5062068;28;20616;-85
2021/03/25 06:16:45;;;;;;;7.63;6.40;;;18.70;53.20;;;;;;5062301;28;20197;-84
2021/03/25 06:19:44;;;;;;;7.90;6.90;;;18.70;53.10;;;;;;5057434;28;20209;-84
2021/03/25 06:22:20;;;;;;;12.53;7.83;;;18.70;53.10;;;;;;5062882;28;20179;-89
2021/03/25 06:24:55;;;;;;;10.87;7.60;;;18.70;53.20;;;;;;5054340;28;20268;-84
2021/03/25 06:27:34;;;;;;;18.53;8.77;;;18.70;53.30;;;;;;5059173;28;20178;-83
2021/03/25 06:30:17;;;;;;;16.13;10.00;;;18.70;53.80;;;;;;5066093;28;20184;-83
2021/03/25 06:33:08;;;;;;;20.80;10.57;;;18.70;53.70;;;;;;5070820;28;20200;-84
2021/03/25 06:35:46;;;;;;;19.93;9.70;;;18.80;53.80;;;;;;5062801;28;20200;-79
2021/03/25 06:38:26;;;;;;;20.00;9.67;;;18.70;53.70;;;;;;5068561;28;20193;-81
2021/03/25 06:41:02;;;;;;;21.73;10.30;;;18.70;53.60;;;;;;5061648;28;20284;-83
2021/03/25 06:43:55;;;;;;;14.40;9.63;;;18.70;53.60;;;;;;5067941;28;20214;-83
2021/03/25 06:46:45;;;;;;;17.50;10.17;;;18.70;53.50;;;;;;5061739;28;20200;-84
2021/03/25 06:49:42;;;;;;;17.93;10.40;;;18.70;53.60;;;;;;5062022;28;20402;-83
2021/03/25 06:52:30;;;;;;;16.93;9.83;;;18.70;53.60;;;;;;5059993;28;20261;-84
2021/03/25 06:55:06;;;;;;;15.23;9.93;;;18.70;53.60;;;;;;5061472;28;20600;-83
2021/03/25 06:58:01;;;;;;;17.63;9.97;;;18.70;53.60;;;;;;5060733;28;20220;-84
2021/03/25 07:00:33;;;;;;;17.43;10.70;;;18.70;53.70;;;;;;5061785;28;20972;-80
2021/03/25 07:03:03;;;;;;;17.00;10.10;;;18.80;53.60;;;;;;5061146;28;20202;-81
2021/03/25 07:05:33;;;;;;;18.97;10.57;;;18.70;53.50;;;;;;5060200;28;20758;-84
2021/03/25 07:08:14;;;;;;;15.53;10.23;;;18.70;53.50;;;;;;5064868;28;20198;-83
2021/03/25 07:10:43;;;;;;;15.73;9.63;;;18.70;53.40;;;;;;5061947;28;20197;-87
2021/03/25 07:13:16;;;;;;;109.67;24.63;;;18.70;53.40;;;;;;5057975;28;20324;-86
2021/03/25 07:15:53;;;;;;;70.33;20.03;;;18.70;54.10;;;;;;5054474;28;20410;-82
2021/03/25 07:18:26;;;;;;;58.63;19.60;;;18.80;55.10;;;;;;5059817;28;20322;-85
2021/03/25 07:21:22;;;;;;;77.70;19.50;;;18.90;55.30;;;;;;5062545;28;20224;-87
2021/03/25 07:23:49;;;;;;;54.27;18.70;;;18.90;54.80;;;;;;5052177;28;20296;-88
2021/03/25 07:26:38;;;;;;;56.23;17.87;;;18.90;54.50;;;;;;5055176;28;20193;-91
2021/03/25 07:29:11;;;;;;;51.97;18.87;;;19.00;55.10;;;;;;5076793;28;20280;-85
2021/03/25 07:31:53;;;;;;;39.77;19.63;;;19.10;54.60;;;;;;5076873;28;20948;-86
2021/03/25 07:34:50;;;;;;;43.03;22.00;;;19.10;53.90;;;;;;5056199;28;20485;-84
2021/03/25 07:37:33;;;;;;;41.23;22.10;;;19.20;53.80;;;;;;5036327;28;20621;-84
2021/03/25 07:40:20;;;;;;;34.33;22.60;;;19.20;53.30;;;;;;5056201;28;20912;-85
2021/03/25 07:42:47;;;;;;;38.27;22.80;;;19.20;53.10;;;;;;5050624;28;20268;-81
2021/03/25 07:45:22;;;;;;;33.70;22.07;;;19.30;52.20;;;;;;5056025;28;20214;-87
2021/03/25 07:47:49;;;;;;;35.47;23.53;;;19.30;52.40;;;;;;5063559;28;20731;-88
2021/03/25 07:50:24;;;;;;;35.33;22.07;;;19.30;52.00;;;;;;5051677;28;20518;-88
2021/03/25 07:52:51;;;;;;;30.50;22.93;;;19.30;51.90;;;;;;5051798;28;21635;-86
2021/03/25 07:55:23;;;;;;;37.13;21.63;;;19.30;51.50;;;;;;5059590;28;20254;-86
2021/03/25 07:57:50;;;;;;;30.80;22.70;;;19.30;51.90;;;;;;5054003;28;20229;-84
2021/03/25 08:00:30;;;;;;;31.30;22.03;;;19.40;51.70;;;;;;5055924;28;20366;-83
2021/03/25 08:03:19;;;;;;;31.93;22.27;;;19.40;51.40;;;;;;5053994;28;20254;-83
2021/03/25 08:05:48;;;;;;;29.70;21.33;;;19.40;51.40;;;;;;5057388;28;20190;-80
2021/03/25 08:08:25;;;;;;;28.67;20.60;;;19.50;51.30;;;;;;5058791;28;20262;-88
2021/03/25 08:11:08;;;;;;;24.83;19.40;;;19.50;51.20;;;;;;5059650;28;20196;-83
2021/03/25 08:13:36;;;;;;;27.47;20.97;;;19.50;51.20;;;;;;5061009;28;20419;-82
2021/03/25 08:16:14;;;;;;;35.47;20.23;;;19.50;51.50;;;;;;5054849;28;20254;-80
2021/03/25 08:19:20;;;;;;;26.37;20.03;;;19.50;51.10;;;;;;5055799;28;20185;-82
2021/03/25 08:22:28;;;;;;;27.77;19.63;;;19.60;51.10;;;;;;5063572;28;20196;-81
2021/03/25 08:25:28;;;;;;;26.73;19.70;;;19.60;50.50;;;;;;5063357;28;20233;-83
2021/03/25 08:28:28;;;;;;;26.70;20.33;;;19.60;50.40;;;;;;5061976;28;20402;-83
2021/03/25 08:31:19;;;;;;;25.20;18.73;;;19.60;50.80;;;;;;5071616;28;20193;-81
2021/03/25 08:34:14;;;;;;;31.37;19.23;;;19.70;50.50;;;;;;5067688;28;20173;-83
2021/03/25 08:37:02;;;;;;;25.10;18.57;;;19.70;50.60;;;;;;5063747;28;20612;-80
2021/03/25 08:39:42;;;;;;;25.27;19.13;;;19.70;50.40;;;;;;5057927;28;20665;-82
2021/03/25 08:42:19;;;;;;;22.40;19.10;;;19.80;50.70;;;;;;5067893;28;20204;-84
2021/03/25 08:45:14;;;;;;;25.47;19.87;;;19.80;50.10;;;;;;5062353;28;20223;-83
2021/03/25 08:48:17;;;;;;;23.73;18.67;;;19.80;50.10;;;;;;5056430;28;20200;-83
2021/03/25 08:51:22;;;;;;;30.17;20.17;;;19.80;50.30;;;;;;5058762;28;20192;-84
2021/03/25 08:54:11;;;;;;;26.47;19.33;;;19.90;49.70;;;;;;5062645;28;20213;-81
2021/03/25 08:56:44;;;;;;;26.63;18.47;;;19.90;49.80;;;;;;5060279;28;20234;-80
2021/03/25 08:59:30;;;;;;;27.73;18.33;;;19.90;49.90;;;;;;5059762;28;20233;-86
2021/03/25 09:02:14;;;;;;;22.37;17.10;;;20.00;50.20;;;;;;5074854;28;20620;-86
2021/03/25 09:04:51;;;;;;;35.30;18.60;;;20.00;49.80;;;;;;5057967;28;20214;-83
2021/03/25 09:07:19;;;;;;;21.37;16.83;;;20.00;49.80;;;;;;5058702;28;20201;-83
2021/03/25 09:09:49;;;;;;;22.13;16.40;;;20.00;50.10;;;;;;5064096;28;20209;-82
2021/03/25 09:12:30;;;;;;;21.73;16.10;;;20.10;49.90;;;;;;5061496;28;20189;-86
2021/03/25 09:14:58;;;;;;;19.67;14.60;;;20.10;50.10;;;;;;5059086;28;20197;-84
2021/03/25 09:17:38;;;;;;;16.07;13.60;;;20.10;49.90;;;;;;5061664;28;20339;-80
2021/03/25 09:20:19;;;;;;;20.73;15.23;;;20.20;49.70;;;;;;5058020;28;20189;-84
2021/03/25 09:22:51;;;;;;;16.30;14.13;;;20.20;49.00;;;;;;5054737;28;20259;-80
2021/03/25 09:25:27;;;;;;;19.13;14.13;;;20.20;49.40;;;;;;5066533;28;20251;-83
2021/03/25 09:27:53;;;;;;;17.90;13.60;;;20.30;49.30;;;;;;5058413;28;20238;-83
2021/03/25 09:30:36;;;;;;;16.07;12.57;;;20.30;49.30;;;;;;5065186;28;20405;-86
2021/03/25 09:33:51;;;;;;;17.90;12.33;;;20.30;49.90;;;;;;5066571;28;20201;-86
2021/03/25 09:36:17;;;;;;;18.80;13.87;;;20.30;49.00;;;;;;5038475;28;20186;-88
2021/03/25 09:38:45;;;;;;;19.23;14.03;;;20.30;49.70;;;;;;5057198;28;20206;-85
2021/03/25 09:41:30;;;;;;;19.47;13.40;;;20.30;49.70;;;;;;5056643;28;20401;-86
2021/03/25 09:44:08;;;;;;;17.80;12.93;;;20.30;49.10;;;;;;5062837;28;20221;-84
2021/03/25 09:46:55;;;;;;;19.83;14.77;;;20.30;49.00;;;;;;5059996;28;20208;-86
2021/03/25 09:49:42;;;;;;;19.43;14.57;;;20.40;49.00;;;;;;5060659;28;20212;-82
2021/03/25 09:52:12;;;;;;;22.53;13.50;;;20.40;48.30;;;;;;5065812;28;20229;-82
2021/03/25 09:55:07;;;;;;;17.87;12.30;;;20.40;49.00;;;;;;5059120;28;20190;-83
2021/03/25 09:57:49;;;;;;;16.30;12.37;;;20.50;49.00;;;;;;5062563;28;20289;-82
2021/03/25 10:00:21;;;;;;;18.63;12.50;;;20.50;49.60;;;;;;5058756;28;20555;-84
2021/03/25 10:02:48;;;;;;;16.60;11.77;;;20.50;49.10;;;;;;5067196;28;20198;-84
2021/03/25 10:05:34;;;;;;;19.00;12.67;;;20.60;49.10;;;;;;5061411;28;20209;-84
2021/03/25 10:08:43;;;;;;;18.73;12.30;;;20.60;49.20;;;;;;5055296;28;20615;-82
2021/03/25 10:11:49;;;;;;;14.33;11.23;;;20.70;48.60;;;;;;5059599;28;20194;-83
2021/03/25 10:14:48;;;;;;;18.43;11.57;;;20.70;49.20;;;;;;5056325;28;20197;-82
2021/03/25 10:17:44;;;;;;;16.77;11.73;;;20.60;48.70;;;;;;5056483;28;20422;-83
2021/03/25 10:20:33;;;;;;;15.43;11.50;;;20.70;47.40;;;;;;5056529;28;20202;-83
2021/03/25 10:23:01;;;;;;;14.47;10.87;;;20.70;48.30;;;;;;5061085;28;20536;-84
2021/03/25 10:25:30;;;;;;;12.83;9.97;;;20.80;47.80;;;;;;5057509;28;20230;-82
2021/03/25 10:28:01;;;;;;;12.73;9.30;;;20.70;46.80;;;;;;5058719;28;20185;-81
2021/03/25 10:30:33;;;;;;;13.17;8.97;;;20.80;46.90;;;;;;5060100;28;20200;-82
2021/03/25 10:33:04;;;;;;;10.37;7.77;;;20.80;47.30;;;;;;5067419;28;20557;-82
2021/03/25 10:35:39;;;;;;;10.53;7.40;;;20.80;47.40;;;;;;5064907;28;20713;-80
2021/03/25 10:38:08;;;;;;;16.00;8.37;;;20.80;47.30;;;;;;5065685;28;20193;-85
2021/03/25 10:40:39;;;;;;;14.33;7.87;;;20.80;47.80;;;;;;5068319;28;20544;-82
2021/03/25 10:43:12;;;;;;;12.03;8.40;;;20.90;47.70;;;;;;5064808;28;20200;-81
2021/03/25 10:45:47;;;;;;;10.07;7.47;;;20.90;47.50;;;;;;5058272;28;20190;-88
2021/03/25 10:48:22;;;;;;;9.77;7.70;;;20.90;47.70;;;;;;5057437;28;20284;-83
2021/03/25 10:51:13;;;;;;;14.20;9.07;;;21.00;47.50;;;;;;5058032;28;21020;-81
2021/03/25 10:53:45;;;;;;;9.50;7.40;;;20.90;47.80;;;;;;5056106;28;21038;-80
2021/03/25 10:56:32;;;;;;;12.23;7.90;;;21.00;47.80;;;;;;5061133;28;20231;-82
2021/03/25 10:59:20;;;;;;;10.60;7.60;;;21.00;47.60;;;;;;5055670;28;20209;-80
2021/03/25 11:02:00;;;;;;;11.23;8.40;;;21.00;47.70;;;;;;5062910;28;20208;-83
2021/03/25 11:04:34;;;;;;;10.57;7.37;;;21.10;47.20;;;;;;5059402;28;20225;-81
2021/03/25 11:07:19;;;;;;;10.47;7.43;;;21.20;47.50;;;;;;5054779;28;20463;-81
2021/03/25 11:10:00;;;;;;;8.30;7.40;;;21.10;47.70;;;;;;5055005;28;20215;-80
2021/03/25 11:12:32;;;;;;;10.73;7.70;;;21.10;47.60;;;;;;5058423;28;20422;-81
2021/03/25 11:15:07;;;;;;;10.43;7.03;;;21.10;46.80;;;;;;5051431;28;20193;-76
2021/03/25 11:17:42;;;;;;;9.73;6.03;;;21.10;47.10;;;;;;5056919;28;20867;-77
2021/03/25 11:20:17;;;;;;;11.03;6.87;;;20.90;49.50;;;;;;5059428;28;20190;-85
2021/03/25 11:22:44;;;;;;;6.73;6.03;;;20.90;49.30;;;;;;5058616;28;20189;-83
2021/03/25 11:25:19;;;;;;;11.60;6.40;;;21.00;48.80;;;;;;5060662;28;20502;-83
2021/03/25 11:27:46;;;;;;;8.35;6.13;;;20.90;49.20;;;;;;5058347;28;20193;-81
2021/03/25 11:30:28;;;;;;;7.30;6.13;;;21.00;49.50;;;;;;5052914;28;20209;-82
2021/03/25 11:32:54;;;;;;;9.40;6.67;;;21.10;50.50;;;;;;5050188;28;20232;-83
2021/03/25 11:35:40;;;;;;;9.67;6.17;;;21.10;50.50;;;;;;5058219;28;20574;-83
2021/03/25 11:38:25;;;;;;;6.67;5.43;;;21.30;50.40;;;;;;5055982;28;20226;-86
2021/03/25 11:40:59;;;;;;;6.60;5.30;;;21.50;50.10;;;;;;5055238;28;20817;-88
2021/03/25 11:43:45;;;;;;;6.03;4.50;;;21.60;50.00;;;;;;5048446;28;20289;-86
2021/03/25 11:46:25;;;;;;;4.87;4.30;;;21.70;49.90;;;;;;5052711;28;20190;-86
2021/03/25 11:49:13;;;;;;;6.17;4.10;;;21.70;49.90;;;;;;5054533;28;20198;-86
2021/03/25 11:52:02;;;;;;;4.73;3.70;;;21.80;50.30;;;;;;5058640;28;20206;-82
2021/03/25 11:54:34;;;;;;;5.67;3.63;;;21.80;50.00;;;;;;5062209;28;20255;-85
2021/03/25 11:57:45;;;;;;;9.80;3.60;;;21.90;49.80;;;;;;5058683;28;20225;-84
2021/03/25 12:00:20;;;;;;;3.97;3.37;;;21.90;50.00;;;;;;5070917;28;20244;-81
2021/03/25 12:02:47;;;;;;;4.17;3.47;;;22.00;50.20;;;;;;5058766;28;20225;-81
2021/03/25 12:05:30;;;;;;;4.30;3.70;;;21.80;51.20;;;;;;5067849;28;20666;-80
2021/03/25 12:08:22;;;;;;;3.73;3.43;;;21.60;52.10;;;;;;5058952;28;20756;-79
2021/03/25 12:11:04;;;;;;;3.93;3.50;;;21.60;52.50;;;;;;5055837;28;21177;-84
2021/03/25 12:13:31;;;;;;;7.23;2.97;;;21.50;53.40;;;;;;5057442;28;20848;-81
2021/03/25 12:15:58;;;;;;;5.80;3.17;;;22.10;52.20;;;;;;5059099;28;20493;-84
2021/03/25 12:18:30;;;;;;;6.03;2.40;;;23.00;50.10;;;;;;5052072;28;20202;-87
2021/03/25 12:21:02;;;;;;;3.13;2.23;;;23.70;48.70;;;;;;5076139;28;20209;-86
2021/03/25 12:23:34;;;;;;;3.17;2.17;;;24.10;47.50;;;;;;5065937;28;20587;-86
2021/03/25 12:26:03;;;;;;;3.03;2.23;;;24.40;47.00;;;;;;5060730;28;20198;-84
2021/03/25 12:28:30;;;;;;;2.47;2.10;;;24.70;46.20;;;;;;5058042;28;20221;-82
2021/03/25 12:31:02;;;;;;;2.93;2.17;;;24.90;46.00;;;;;;5058440;28;20197;-85
2021/03/25 12:33:33;;;;;;;2.40;2.20;;;25.10;45.50;;;;;;5059790;28;20205;-84
2021/03/25 12:36:01;;;;;;;2.30;1.93;;;25.30;45.30;;;;;;5059602;28;20813;-86
2021/03/25 12:38:28;;;;;;;2.00;1.80;;;25.60;45.10;;;;;;5055589;28;20215;-86
2021/03/25 12:40:55;;;;;;;4.40;2.07;;;25.70;45.00;;;;;;5057293;28;20198;-82
2021/03/25 12:43:25;;;;;;;2.60;2.10;;;25.90;44.60;;;;;;5055353;28;20208;-83
2021/03/25 12:45:55;;;;;;;2.03;1.83;;;26.20;44.10;;;;;;5058222;28;20673;-84
2021/03/25 12:48:30;;;;;;;3.60;2.10;;;26.40;43.90;;;;;;5061017;28;20198;-83
2021/03/25 12:50:58;;;;;;;2.10;2.00;;;26.50;43.50;;;;;;5057311;28;20653;-84
2021/03/25 12:53:27;;;;;;;3.90;2.03;;;26.60;43.50;;;;;;5053820;28;20206;-86
2021/03/25 12:55:54;;;;;;;2.43;1.70;;;26.80;43.40;;;;;;5061857;28;20221;-83
2021/03/25 12:58:37;;;;;;;4.50;2.00;;;26.90;43.30;;;;;;5062080;28;20204;-86
2021/03/25 13:01:15;;;;;;;2.63;1.80;;;27.10;43.20;;;;;;5059285;28;20226;-86
2021/03/25 13:03:57;;;;;;;2.03;1.83;;;27.20;42.80;;;;;;5034015;23;20261;-89
2021/03/25 13:06:38;;;;;;;3.63;1.53;;;27.40;42.60;;;;;;5008492;28;20203;-87
2021/03/25 13:09:32;;;;;;;4.00;1.47;;;27.50;42.70;;;;;;5018939;28;20204;-92
2021/03/25 13:12:10;;;;;;;1.60;1.50;;;27.40;43.00;;;;;;5006725;28;20196;-93
2021/03/25 13:14:41;;;;;;;1.57;1.47;;;27.40;43.20;;;;;;5006758;28;20680;-93
2021/03/25 13:17:07;;;;;;;1.67;1.50;;;27.50;43.20;;;;;;5004136;28;20200;-89
2021/03/25 13:19:54;;;;;;;1.50;1.40;;;27.60;42.80;;;;;;5010645;28;20233;-89
2021/03/25 13:22:21;;;;;;;4.73;1.37;;;27.70;42.70;;;;;;5081802;22;20327;-90
2021/03/25 13:24:56;;;;;;;3.17;1.60;;;27.80;42.80;;;;;;5006277;28;20701;-86
2021/03/25 13:27:32;;;;;;;2.43;1.60;;;27.90;42.70;;;;;;5017979;28;20305;-92
2021/03/25 13:30:07;;;;;;;1.90;1.47;;;28.00;43.30;;;;;;5008249;28;20231;-85
2021/03/25 13:32:33;;;;;;;1.40;1.30;;;28.00;42.60;;;;;;5010641;28;20188;-85